createdAt,value
2022-07-29T00:02:22.092Z,21.54
2022-07-29T00:04:51.850Z,21.41
2022-07-29T00:07:20.353Z,21.43
2022-07-29T00:09:51.773Z,21.45
2022-07-29T00:12:25.592Z,21.45
2022-07-29T00:14:58.033Z,21.53
2022-07-29T00:17:26.798Z,21.41
2022-07-29T00:19:57.193Z,21.24
2022-07-29T00:22:25.538Z,21.43
2022-07-29T00:24:53.814Z,21.46
2022-07-29T00:27:22.984Z,21.28
2022-07-29T00:29:51.233Z,21.29
2022-07-29T00:32:19.370Z,21.26
2022-07-29T00:35:04.902Z,21.20
2022-07-29T00:37:34.784Z,21.22
2022-07-29T00:40:02.996Z,21.25
2022-07-29T00:42:31.465Z,21.28
2022-07-29T00:44:59.977Z,21.31
2022-07-29T00:47:28.317Z,21.27
2022-07-29T00:49:56.827Z,21.39
2022-07-29T00:52:24.999Z,21.39
2022-07-29T00:54:54.922Z,21.14
2022-07-29T00:57:23.379Z,21.34
2022-07-29T00:59:51.923Z,21.27
2022-07-29T01:02:20.477Z,21.18
2022-07-29T01:04:48.718Z,21.28
2022-07-29T01:07:17.857Z,21.24
2022-07-29T01:09:48.838Z,21.30
2022-07-29T01:12:21.230Z,21.21
2022-07-29T01:14:51.143Z,20.95
2022-07-29T01:17:24.194Z,20.45
2022-07-29T01:19:59.329Z,20.19
2022-07-29T01:22:34.010Z,20.14
2022-07-29T01:25:15.154Z,20.05
2022-07-29T01:28:03.201Z,20.12
2022-07-29T01:30:34.933Z,20.32
2022-07-29T01:33:08.358Z,20.30
2022-07-29T01:35:40.846Z,20.40
2022-07-29T01:38:13.391Z,20.45
2022-07-29T01:40:47.487Z,20.40
2022-07-29T01:43:18.576Z,20.18
2022-07-29T01:45:53.075Z,20.22
2022-07-29T01:48:25.838Z,20.37
2022-07-29T01:51:00.420Z,20.47
2022-07-29T01:53:37.991Z,20.53
2022-07-29T01:56:09.080Z,20.53
2022-07-29T01:58:39.337Z,20.51
2022-07-29T02:01:11.046Z,20.51
2022-07-29T02:03:41.093Z,20.56
2022-07-29T02:06:11.787Z,20.63
2022-07-29T02:08:41.601Z,20.69
2022-07-29T02:11:11.029Z,20.60
2022-07-29T02:13:40.389Z,20.57
2022-07-29T02:16:11.999Z,20.53
2022-07-29T02:18:43.327Z,20.61
2022-07-29T02:21:14.909Z,20.56
2022-07-29T02:23:51.190Z,20.45
2022-07-29T02:26:21.731Z,20.35
2022-07-29T02:28:51.940Z,20.32
2022-07-29T02:31:26.887Z,20.20
2022-07-29T02:33:57.085Z,19.66
2022-07-29T02:36:27.211Z,19.40
2022-07-29T02:38:58.905Z,19.10
2022-07-29T02:41:31.440Z,18.80
2022-07-29T02:44:06.302Z,18.73
2022-07-29T02:46:39.140Z,19.01
2022-07-29T02:49:15.630Z,19.02
2022-07-29T02:51:47.661Z,19.03
2022-07-29T02:54:26.745Z,18.93
2022-07-29T02:56:57.115Z,18.93
2022-07-29T02:59:29.345Z,18.47
2022-07-29T03:02:01.389Z,18.38
2022-07-29T03:04:31.153Z,18.47
2022-07-29T03:07:02.430Z,18.24
2022-07-29T03:09:31.939Z,18.53
2022-07-29T03:12:01.223Z,18.57
2022-07-29T03:14:30.388Z,18.38
2022-07-29T03:17:01.460Z,18.63
2022-07-29T03:19:29.990Z,18.42
2022-07-29T03:21:59.910Z,18.21
2022-07-29T03:24:30.416Z,18.38
2022-07-29T03:26:59.251Z,18.25
2022-07-29T03:29:33.762Z,18.25
2022-07-29T03:32:07.926Z,18.12
2022-07-29T03:34:39.143Z,18.08
2022-07-29T03:37:08.091Z,18.08
2022-07-29T03:39:42.314Z,18.15
2022-07-29T03:42:14.301Z,18.19
2022-07-29T03:44:46.766Z,18.28
2022-07-29T03:47:18.767Z,18.25
2022-07-29T03:49:52.817Z,18.34
2022-07-29T03:52:21.641Z,18.30
2022-07-29T03:54:50.169Z,18.26
2022-07-29T03:57:19.902Z,18.14
2022-07-29T03:59:48.986Z,18.09
2022-07-29T04:02:22.412Z,18.07
2022-07-29T04:04:53.690Z,18.22
2022-07-29T04:07:21.953Z,18.29
2022-07-29T04:09:53.583Z,18.40
2022-07-29T04:12:22.342Z,18.50
2022-07-29T04:14:51.339Z,18.41
2022-07-29T04:17:21.140Z,18.27
2022-07-29T04:19:49.631Z,18.01
2022-07-29T04:22:17.927Z,17.17
2022-07-29T04:24:45.977Z,16.85
2022-07-29T04:27:14.185Z,16.93
2022-07-29T04:29:56.319Z,17.22
2022-07-29T04:32:28.069Z,17.39
2022-07-29T04:34:56.517Z,17.43
2022-07-29T04:37:24.911Z,17.59
2022-07-29T04:39:53.275Z,17.70
2022-07-29T04:42:27.461Z,17.71
2022-07-29T04:44:56.105Z,17.64
2022-07-29T04:47:24.266Z,17.56
2022-07-29T04:49:54.162Z,17.35
2022-07-29T04:52:22.327Z,17.22
2022-07-29T04:54:50.785Z,17.32
2022-07-29T04:57:19.182Z,17.14
2022-07-29T04:59:47.346Z,17.06
2022-07-29T05:02:15.575Z,17.31
2022-07-29T05:04:43.817Z,16.95
2022-07-29T05:07:13.582Z,17.03
2022-07-29T05:09:41.710Z,17.01
2022-07-29T05:12:10.853Z,16.97
2022-07-29T05:14:38.984Z,16.88
2022-07-29T05:17:07.119Z,16.66
2022-07-29T05:19:39.399Z,16.74
2022-07-29T05:22:08.281Z,16.75
2022-07-29T05:24:37.860Z,16.60
2022-07-29T05:27:06.190Z,16.66
2022-07-29T05:29:44.493Z,16.48
2022-07-29T05:32:14.144Z,16.63
2022-07-29T05:34:50.813Z,16.70
2022-07-29T05:37:20.672Z,16.78
2022-07-29T05:39:56.942Z,16.87
2022-07-29T05:42:26.141Z,16.98
2022-07-29T05:44:55.174Z,17.15
2022-07-29T05:47:23.822Z,17.26
2022-07-29T05:49:53.065Z,17.30
2022-07-29T05:52:21.586Z,17.27
2022-07-29T05:54:52.350Z,16.47
2022-07-29T05:57:22.031Z,16.54
2022-07-29T05:59:51.280Z,16.78
2022-07-29T06:02:20.158Z,17.00
2022-07-29T06:04:48.834Z,17.14
2022-07-29T06:07:17.384Z,17.13
2022-07-29T06:09:45.565Z,17.41
2022-07-29T06:12:15.521Z,17.60
2022-07-29T06:14:43.980Z,17.90
2022-07-29T06:17:13.046Z,17.98
2022-07-29T06:19:41.382Z,18.14
2022-07-29T06:22:09.484Z,17.96
2022-07-29T06:24:43.442Z,18.10
2022-07-29T06:27:11.769Z,18.14
2022-07-29T06:29:42.041Z,18.35
2022-07-29T06:32:10.285Z,18.33
2022-07-29T06:34:39.068Z,18.44
2022-07-29T06:37:13.209Z,18.63
2022-07-29T06:39:44.117Z,18.52
2022-07-29T06:42:12.578Z,18.73
2022-07-29T06:44:44.761Z,18.66
2022-07-29T06:47:13.576Z,18.64
2022-07-29T06:49:42.050Z,18.95
2022-07-29T06:52:10.214Z,18.86
2022-07-29T06:54:39.773Z,19.10
2022-07-29T06:57:08.265Z,18.94
2022-07-29T06:59:36.549Z,18.98
2022-07-29T07:02:06.473Z,18.61
2022-07-29T07:04:35.218Z,19.03
2022-07-29T07:07:03.668Z,18.79
2022-07-29T07:09:40.078Z,18.78
2022-07-29T07:12:09.159Z,19.00
2022-07-29T07:14:37.312Z,18.75
2022-07-29T07:17:08.164Z,19.13
2022-07-29T07:19:36.831Z,18.91
2022-07-29T07:22:05.269Z,19.25
2022-07-29T07:24:34.081Z,19.46
2022-07-29T07:27:03.032Z,19.45
2022-07-29T07:29:31.337Z,19.15
2022-07-29T07:32:01.308Z,19.35
2022-07-29T07:34:32.007Z,19.00
2022-07-29T07:37:00.222Z,18.96
2022-07-29T07:39:28.772Z,18.85
2022-07-29T07:41:57.178Z,19.15
2022-07-29T07:44:25.383Z,19.20
2022-07-29T07:46:53.646Z,19.51
2022-07-29T07:49:23.190Z,19.85
2022-07-29T07:51:53.756Z,19.92
2022-07-29T07:54:22.176Z,19.47
2022-07-29T07:56:50.873Z,19.93
2022-07-29T07:59:21.827Z,19.91
2022-07-29T08:01:55.646Z,19.83
2022-07-29T08:04:27.981Z,19.99
2022-07-29T08:06:58.648Z,20.03
2022-07-29T08:09:30.150Z,19.83
2022-07-29T08:12:00.435Z,20.07
2022-07-29T08:14:28.823Z,20.25
2022-07-29T08:16:57.058Z,20.34
2022-07-29T08:19:25.203Z,20.43
2022-07-29T08:21:54.950Z,20.47
2022-07-29T08:24:42.252Z,20.62
2022-07-29T08:27:33.475Z,20.74
2022-07-29T08:29:59.246Z,20.48
2022-07-29T08:32:52.094Z,20.76
2022-07-29T08:35:17.713Z,21.11
2022-07-29T08:37:45.814Z,21.11
2022-07-29T08:40:16.497Z,20.80
2022-07-29T08:42:45.829Z,21.18
2022-07-29T08:45:14.332Z,21.47
2022-07-29T08:47:42.821Z,21.46
2022-07-29T08:50:11.972Z,21.57
2022-07-29T08:52:41.875Z,21.80
2022-07-29T08:55:12.099Z,22.14
2022-07-29T08:57:48.768Z,22.24
2022-07-29T09:00:20.822Z,22.37
2022-07-29T09:02:53.530Z,22.49
2022-07-29T09:05:22.237Z,22.56
2022-07-29T09:07:51.172Z,22.68
2022-07-29T09:10:19.413Z,22.82
2022-07-29T09:12:49.951Z,23.01
2022-07-29T09:15:18.381Z,22.90
2022-07-29T09:17:48.225Z,22.76
2022-07-29T09:20:18.841Z,23.32
2022-07-29T09:22:50.470Z,23.23
2022-07-29T09:25:35.747Z,23.55
2022-07-29T09:28:13.555Z,23.65
2022-07-29T09:30:52.554Z,24.18
2022-07-29T09:33:21.262Z,24.25
2022-07-29T09:36:01.900Z,24.50
2022-07-29T09:38:30.775Z,24.64
2022-07-29T09:41:03.008Z,24.80
2022-07-29T09:43:36.431Z,25.08
2022-07-29T09:46:14.306Z,25.22
2022-07-29T09:48:42.503Z,24.91
2022-07-29T09:51:22.156Z,25.02
2022-07-29T09:53:53.095Z,25.18
2022-07-29T09:56:22.419Z,25.35
2022-07-29T09:59:08.198Z,25.33
2022-07-29T10:01:37.068Z,25.19
2022-07-29T10:04:09.406Z,25.47
2022-07-29T10:06:37.863Z,25.63
2022-07-29T10:09:12.642Z,25.94
2022-07-29T10:11:49.412Z,25.77
2022-07-29T10:14:20.310Z,25.91
2022-07-29T10:16:48.569Z,26.32
2022-07-29T10:19:17.153Z,26.77
2022-07-29T10:21:46.862Z,26.76
2022-07-29T10:24:15.383Z,27.17
2022-07-29T10:26:44.133Z,27.52
2022-07-29T10:29:12.346Z,27.58
2022-07-29T10:31:51.250Z,27.35
2022-07-29T10:34:26.182Z,27.74
2022-07-29T10:37:05.111Z,27.55
2022-07-29T10:39:49.715Z,27.68
2022-07-29T10:42:34.084Z,28.25
2022-07-29T10:45:05.863Z,27.83
2022-07-29T10:47:35.939Z,28.29
2022-07-29T10:50:06.132Z,28.10
2022-07-29T10:52:55.677Z,28.27
2022-07-29T10:55:35.913Z,28.65
2022-07-29T10:58:15.558Z,28.38
2022-07-29T11:00:46.763Z,28.48
2022-07-29T11:03:59.245Z,29.22
2022-07-29T11:06:47.597Z,29.37
2022-07-29T11:09:25.921Z,29.00
2022-07-29T11:12:06.808Z,29.61
2022-07-29T11:15:00.450Z,28.95
2022-07-29T11:17:37.542Z,28.96
2022-07-29T11:20:43.023Z,29.49
2022-07-29T11:23:22.454Z,29.58
2022-07-29T11:26:18.842Z,29.54
2022-07-29T11:28:54.581Z,29.43
2022-07-29T11:31:36.846Z,29.50
2022-07-29T11:34:23.177Z,29.33
2022-07-29T11:37:28.281Z,27.92
2022-07-29T11:40:13.366Z,28.77
2022-07-29T11:42:44.421Z,29.23
2022-07-29T11:48:29.166Z,30.09
2022-07-29T11:50:55.748Z,29.91
2022-07-29T11:53:29.251Z,29.51
2022-07-29T11:56:02.719Z,30.12
2022-07-29T11:58:34.242Z,29.48
2022-07-29T12:01:04.947Z,29.55
2022-07-29T12:04:06.851Z,30.26
2022-07-29T12:06:35.830Z,29.87
2022-07-29T12:09:14.765Z,29.80
2022-07-29T12:11:55.344Z,30.19
2022-07-29T12:14:30.749Z,30.44
2022-07-29T12:16:59.508Z,30.51
2022-07-29T12:19:28.689Z,30.72
2022-07-29T12:22:01.126Z,31.13
2022-07-29T12:24:45.668Z,31.14
2022-07-29T12:27:14.482Z,31.21
2022-07-29T12:29:48.785Z,31.25
2022-07-29T12:32:19.843Z,31.60
2022-07-29T12:34:48.619Z,32.08
2022-07-29T12:37:17.040Z,31.94
2022-07-29T12:39:46.752Z,31.10
2022-07-29T12:42:18.545Z,31.22
2022-07-29T12:44:51.495Z,31.79
2022-07-29T12:47:21.927Z,31.96
2022-07-29T12:49:50.611Z,31.97
2022-07-29T12:52:38.395Z,32.08
2022-07-29T12:55:09.771Z,30.58
2022-07-29T12:57:49.376Z,30.71
2022-07-29T13:00:18.750Z,31.60
2022-07-29T13:02:57.828Z,31.83
2022-07-29T13:05:26.605Z,32.10
2022-07-29T13:07:57.561Z,32.45
2022-07-29T13:10:27.407Z,32.21
2022-07-29T13:13:09.241Z,31.79
2022-07-29T13:15:38.188Z,31.50
2022-07-29T13:18:07.445Z,31.76
2022-07-29T13:20:36.438Z,31.52
2022-07-29T13:23:04.555Z,31.20
2022-07-29T13:25:35.510Z,32.13
2022-07-29T13:28:03.835Z,32.54
2022-07-29T13:30:32.160Z,32.75
2022-07-29T13:33:00.478Z,32.62
2022-07-29T13:35:30.908Z,32.45
2022-07-29T13:38:00.410Z,32.21
2022-07-29T13:40:30.535Z,31.80
2022-07-29T13:43:00.578Z,31.84
2022-07-29T13:45:29.161Z,31.98
2022-07-29T13:47:57.704Z,32.04
2022-07-29T13:50:25.851Z,31.58
2022-07-29T13:52:54.204Z,31.47
2022-07-29T13:55:25.534Z,31.31
2022-07-29T13:57:53.743Z,31.10
2022-07-29T14:00:25.111Z,30.76
2022-07-29T14:02:53.561Z,30.43
2022-07-29T14:05:21.639Z,30.38
2022-07-29T14:07:52.361Z,29.99
2022-07-29T14:10:20.736Z,30.13
2022-07-29T14:12:48.985Z,29.82
2022-07-29T14:15:17.171Z,29.85
2022-07-29T14:17:46.713Z,29.34
2022-07-29T14:20:17.170Z,29.15
2022-07-29T14:22:46.096Z,29.24
2022-07-29T14:25:15.517Z,29.22
2022-07-29T14:27:44.409Z,29.34
2022-07-29T14:30:13.382Z,29.28
2022-07-29T14:32:42.071Z,29.26
2022-07-29T14:35:12.514Z,29.11
2022-07-29T14:37:41.205Z,28.77
2022-07-29T14:40:11.490Z,28.57
2022-07-29T14:42:40.412Z,28.49
2022-07-29T14:45:10.815Z,28.37
2022-07-29T14:47:39.450Z,28.32
2022-07-29T14:50:08.688Z,28.43
2022-07-29T14:52:38.719Z,28.33
2022-07-29T14:55:19.454Z,28.19
2022-07-29T14:57:48.193Z,28.14
2022-07-29T15:00:17.361Z,28.02
2022-07-29T15:03:01.289Z,28.07
2022-07-29T15:05:30.334Z,28.07
2022-07-29T15:08:00.903Z,28.04
2022-07-29T15:10:29.713Z,28.00
2022-07-29T15:12:58.324Z,27.86
2022-07-29T15:15:26.928Z,27.75
2022-07-29T15:17:55.389Z,27.69
2022-07-29T15:20:26.337Z,27.64
2022-07-29T15:22:56.638Z,27.59
2022-07-29T15:25:26.483Z,27.56
2022-07-29T15:28:01.187Z,27.53
2022-07-29T15:30:33.389Z,27.47
2022-07-29T15:33:02.888Z,27.45
2022-07-29T15:35:31.546Z,27.55
2022-07-29T15:37:59.861Z,27.35
2022-07-29T15:40:29.991Z,27.21
2022-07-29T15:43:01.908Z,26.99
2022-07-29T15:45:32.050Z,26.89
2022-07-29T15:48:01.505Z,25.56
2022-07-29T15:50:29.773Z,25.25
2022-07-29T15:52:58.026Z,25.18
2022-07-29T15:55:26.223Z,24.94
2022-07-29T15:58:00.283Z,24.72
2022-07-29T16:00:29.543Z,24.58
2022-07-29T16:02:59.187Z,24.86
2022-07-29T16:05:29.697Z,24.72
2022-07-29T16:08:00.125Z,24.60
2022-07-29T16:10:28.538Z,24.45
2022-07-29T16:12:58.322Z,24.44
2022-07-29T16:15:26.527Z,24.45
2022-07-29T16:17:54.718Z,24.58
2022-07-29T16:20:23.600Z,24.54
2022-07-29T16:22:52.146Z,24.48
2022-07-29T16:25:20.333Z,24.65
2022-07-29T16:27:48.538Z,24.37
2022-07-29T16:30:18.380Z,24.59
2022-07-29T16:32:46.839Z,24.71
2022-07-29T16:35:15.072Z,24.68
2022-07-29T16:37:43.550Z,24.79
2022-07-29T16:40:15.396Z,25.06
2022-07-29T16:42:46.984Z,25.40
2022-07-29T16:45:16.106Z,25.91
2022-07-29T16:47:45.946Z,26.20
2022-07-29T16:50:14.357Z,26.54
2022-07-29T16:52:42.623Z,26.65
2022-07-29T16:55:11.011Z,26.51
2022-07-29T16:57:39.321Z,26.69
2022-07-29T17:00:08.774Z,26.79
2022-07-29T17:02:38.874Z,26.66
2022-07-29T17:05:11.058Z,26.52
2022-07-29T17:07:39.469Z,26.19
2022-07-29T17:10:09.835Z,26.09
2022-07-29T17:12:39.227Z,25.92
2022-07-29T17:15:09.510Z,25.78
2022-07-29T17:17:56.369Z,25.84
2022-07-29T17:20:27.521Z,25.78
2022-07-29T17:22:56.388Z,25.66
2022-07-29T17:25:24.932Z,25.59
2022-07-29T17:27:57.530Z,25.54
2022-07-29T17:30:28.866Z,25.60
2022-07-29T17:32:57.143Z,25.48
2022-07-29T17:35:40.805Z,25.45
2022-07-29T17:38:09.322Z,24.89
2022-07-29T17:40:37.537Z,24.71
2022-07-29T17:43:05.688Z,24.52
2022-07-29T17:45:49.362Z,24.44
2022-07-29T17:48:18.986Z,24.26
2022-07-29T17:50:49.516Z,24.30
2022-07-29T17:53:18.265Z,23.87
2022-07-29T17:55:48.418Z,23.81
2022-07-29T17:58:17.673Z,23.72
2022-07-29T18:00:46.351Z,23.86
2022-07-29T18:03:15.092Z,23.87
2022-07-29T18:05:43.848Z,23.46
2022-07-29T18:08:14.532Z,23.75
2022-07-29T18:10:43.446Z,23.51
2022-07-29T18:13:12.863Z,23.72
2022-07-29T18:15:44.458Z,23.79
2022-07-29T18:18:13.203Z,23.75
2022-07-29T18:20:42.996Z,23.56
2022-07-29T18:23:12.035Z,23.87
2022-07-29T18:25:41.887Z,24.01
2022-07-29T18:28:10.481Z,23.55
2022-07-29T18:30:38.880Z,23.45
2022-07-29T18:33:24.692Z,23.53
2022-07-29T18:36:10.608Z,23.80
2022-07-29T18:38:40.280Z,23.99
2022-07-29T18:41:10.379Z,24.08
2022-07-29T18:43:38.536Z,23.95
2022-07-29T18:46:07.148Z,23.93
2022-07-29T18:48:36.302Z,23.93
2022-07-29T18:51:09.336Z,23.94
2022-07-29T18:53:37.967Z,23.54
2022-07-29T18:56:06.310Z,23.76
2022-07-29T18:58:38.454Z,23.86
2022-07-29T19:01:06.624Z,23.62
2022-07-29T19:03:35.006Z,23.70
2022-07-29T19:06:03.243Z,23.63
2022-07-29T19:08:32.445Z,23.73
2022-07-29T19:11:01.679Z,23.70
2022-07-29T19:13:30.086Z,23.70
2022-07-29T19:15:59.911Z,23.83
2022-07-29T19:18:28.031Z,23.82
2022-07-29T19:20:56.164Z,23.79
2022-07-29T19:23:24.490Z,23.81
2022-07-29T19:25:53.395Z,23.85
2022-07-29T19:28:22.176Z,23.78
2022-07-29T19:30:50.676Z,23.72
2022-07-29T19:33:21.187Z,23.32
2022-07-29T19:35:54.564Z,23.35
2022-07-29T19:38:23.546Z,23.26
2022-07-29T19:40:52.046Z,23.01
2022-07-29T19:43:51.368Z,23.09
2022-07-29T19:46:08.707Z,22.94
2022-07-29T19:48:38.319Z,22.90
2022-07-29T19:51:08.122Z,22.71
2022-07-29T19:53:39.864Z,22.77
2022-07-29T19:56:09.150Z,22.89
2022-07-29T19:58:37.547Z,23.01
2022-07-29T20:01:10.241Z,23.01
2022-07-29T20:03:42.356Z,23.04
2022-07-29T20:06:11.420Z,22.87
2022-07-29T20:08:39.814Z,22.68
2022-07-29T20:11:07.990Z,22.23
2022-07-29T20:13:36.071Z,22.08
2022-07-29T20:16:06.679Z,21.70
2022-07-29T20:18:35.394Z,21.74
2022-07-29T20:21:05.153Z,21.55
2022-07-29T20:23:33.931Z,21.30
2022-07-29T20:26:03.443Z,20.98
2022-07-29T20:28:33.221Z,21.14
2022-07-29T20:31:02.243Z,21.18
2022-07-29T20:33:30.539Z,21.29
2022-07-29T20:35:58.779Z,21.10
2022-07-29T20:38:30.496Z,21.10
2022-07-29T20:40:59.037Z,21.20
2022-07-29T20:43:27.773Z,20.99
2022-07-29T20:45:55.947Z,21.11
2022-07-29T20:48:24.243Z,21.14
2022-07-29T20:50:53.086Z,20.78
2022-07-29T20:53:21.756Z,20.83
2022-07-29T20:55:51.534Z,20.92
2022-07-29T20:58:20.033Z,20.64
2022-07-29T21:00:48.508Z,20.25
2022-07-29T21:03:18.503Z,20.51
2022-07-29T21:05:46.668Z,20.53
2022-07-29T21:08:15.416Z,20.67
2022-07-29T21:10:43.864Z,20.93
2022-07-29T21:13:14.322Z,20.92
2022-07-29T21:15:45.865Z,20.95
2022-07-29T21:18:27.427Z,20.91
2022-07-29T21:20:58.265Z,21.02
2022-07-29T21:23:27.282Z,21.14
2022-07-29T21:25:57.707Z,21.01
2022-07-29T21:28:30.795Z,21.09
2022-07-29T21:31:00.771Z,21.14
2022-07-29T21:33:30.542Z,20.89
2022-07-29T21:36:20.326Z,21.02
2022-07-29T21:38:47.318Z,20.95
2022-07-29T21:41:16.034Z,20.56
2022-07-29T21:43:46.581Z,20.68
2022-07-29T21:46:16.882Z,20.66
2022-07-29T21:48:45.264Z,20.69
2022-07-29T21:51:13.897Z,20.76
2022-07-29T21:53:44.049Z,20.69
2022-07-29T21:56:14.666Z,20.61
2022-07-29T21:58:43.520Z,20.38
2022-07-29T22:01:13.287Z,20.33
2022-07-29T22:03:42.057Z,20.44
2022-07-29T22:06:11.332Z,20.32
2022-07-29T22:08:48.122Z,20.47
2022-07-29T22:11:16.596Z,20.61
2022-07-29T22:13:44.708Z,20.56
2022-07-29T22:16:15.410Z,20.58
2022-07-29T22:18:46.786Z,20.34
2022-07-29T22:21:15.451Z,20.29
2022-07-29T22:23:43.640Z,20.34
2022-07-29T22:26:12.078Z,20.22
2022-07-29T22:28:40.566Z,20.03
2022-07-29T22:31:09.100Z,20.13
2022-07-29T22:33:39.335Z,20.16
2022-07-29T22:36:08.788Z,20.13
2022-07-29T22:38:36.966Z,19.80
2022-07-29T22:41:06.521Z,19.70
2022-07-29T22:43:35.285Z,19.65
2022-07-29T22:46:03.423Z,19.59
2022-07-29T22:48:31.683Z,19.39
2022-07-29T22:51:01.562Z,19.38
2022-07-29T22:53:29.741Z,19.35
2022-07-29T22:55:57.891Z,19.24
2022-07-29T22:58:27.411Z,19.29
2022-07-29T23:00:55.721Z,19.27
2022-07-29T23:03:24.204Z,19.13
2022-07-29T23:05:53.661Z,19.29
2022-07-29T23:08:23.190Z,19.23
2022-07-29T23:10:51.509Z,19.21
2022-07-29T23:13:20.129Z,19.08
2022-07-29T23:15:48.477Z,19.04
2022-07-29T23:18:17.054Z,18.95
2022-07-29T23:20:45.577Z,18.95
2022-07-29T23:23:14.317Z,19.03
2022-07-29T23:25:44.728Z,19.11
2022-07-29T23:28:13.364Z,19.06
2022-07-29T23:30:41.931Z,19.09
2022-07-29T23:33:10.387Z,19.14
2022-07-29T23:35:38.758Z,18.88
2022-07-29T23:38:07.898Z,19.02
2022-07-29T23:40:36.015Z,19.00
2022-07-29T23:43:08.579Z,19.00
2022-07-29T23:45:44.667Z,18.99
2022-07-29T23:48:16.754Z,19.05
2022-07-29T23:50:44.869Z,19.07
2022-07-29T23:53:13.443Z,18.99
2022-07-29T23:55:41.627Z,19.02
2022-07-29T23:58:11.625Z,18.99
